Time;durP1;ratioP1;P1;durP2;ratioP2;P2;SDS_P1;SDS_P2;PMS_P1;PMS_P2;Temp;Humidity;BMP_temperature;BMP_pressure;BME280_temperature;BME280_humidity;BME280_pressure;Samples;Min_cycle;Max_cycle;Signal;HPM_P1;HPM_P2
2021/07/26 00:00:26;;;;;;;1999.90;999.90;;;;;;;20.96;62.14;95922.03;5025496;28;20198;-66
2021/07/26 00:02:55;;;;;;;1999.90;999.90;;;;;;;20.94;61.62;95911.03;5025604;28;20592;-66
2021/07/26 00:05:22;;;;;;;1999.90;999.90;;;;;;;20.93;62.72;95912.91;5025363;28;20205;-66
2021/07/26 00:07:49;;;;;;;1999.90;999.90;;;;;;;20.87;62.39;95914.31;5025528;28;20278;-65
2021/07/26 00:10:16;;;;;;;1999.90;999.90;;;;;;;20.80;62.63;95922.09;5025856;28;20255;-66
2021/07/26 00:12:43;;;;;;;1999.90;999.90;;;;;;;20.79;62.39;95912.66;5044495;28;20197;-66
2021/07/26 00:15:11;;;;;;;1999.90;999.90;;;;;;;20.84;62.06;95908.97;5047643;28;20205;-66
2021/07/26 00:17:38;;;;;;;1999.90;999.90;;;;;;;20.72;62.21;95907.25;5048911;28;20292;-66
2021/07/26 00:20:10;;;;;;;1999.90;999.90;;;;;;;20.82;62.17;95905.91;5048636;28;20336;-66
2021/07/26 00:22:38;;;;;;;1999.90;999.90;;;;;;;20.77;62.93;95909.56;5048818;28;20231;-65
2021/07/26 00:25:06;;;;;;;1999.90;999.90;;;;;;;20.75;62.43;95916.34;5046890;28;20201;-66
2021/07/26 00:27:33;;;;;;;1999.90;999.90;;;;;;;20.70;62.99;95929.81;5048661;28;20249;-65
2021/07/26 00:30:00;;;;;;;1999.90;999.90;;;;;;;20.66;63.11;95926.34;5031974;28;20210;-65
2021/07/26 00:32:29;;;;;;;1999.90;999.90;;;;;;;20.60;62.91;95933.78;5028718;28;20194;-66
2021/07/26 00:34:56;;;;;;;1999.90;999.90;;;;;;;20.58;64.04;95939.38;5028606;28;20233;-66
2021/07/26 00:37:26;;;;;;;1999.90;999.90;;;;;;;20.65;62.88;95951.22;5028496;28;20209;-65
2021/07/26 00:39:54;;;;;;;1999.90;999.90;;;;;;;20.61;63.30;95938.72;5031351;28;20210;-65
2021/07/26 00:42:21;;;;;;;1999.90;999.90;;;;;;;20.54;62.95;95933.28;5028459;28;20742;-66
2021/07/26 00:44:48;;;;;;;1999.90;999.90;;;;;;;20.50;63.46;95935.09;5028258;28;20673;-65
2021/07/26 00:47:15;;;;;;;1999.90;999.90;;;;;;;20.49;63.34;95935.41;5028750;28;20255;-65
2021/07/26 00:49:43;;;;;;;1999.90;999.90;;;;;;;20.46;63.47;95920.28;5028393;28;20221;-65
2021/07/26 00:52:10;;;;;;;1999.90;999.90;;;;;;;20.41;64.31;95923.19;5028714;28;20278;-66
2021/07/26 00:54:40;;;;;;;1999.90;999.90;;;;;;;20.37;64.07;95920.47;5028302;28;20208;-66
2021/07/26 00:57:08;;;;;;;1999.90;999.90;;;;;;;20.34;64.33;95931.72;5028272;28;20198;-66
2021/07/26 00:59:36;;;;;;;1999.90;999.90;;;;;;;20.33;64.15;95918.84;5027989;28;20325;-65
2021/07/26 01:02:04;;;;;;;1999.90;999.90;;;;;;;20.26;64.37;95922.09;5028334;28;20231;-67
2021/07/26 01:04:31;;;;;;;1999.90;999.90;;;;;;;20.28;64.83;95913.81;5033644;28;20245;-65
2021/07/26 01:06:58;;;;;;;1999.90;999.90;;;;;;;20.21;64.88;95925.00;5042289;28;20209;-66
2021/07/26 01:09:26;;;;;;;1999.90;999.90;;;;;;;20.21;64.77;95906.53;5027934;28;20237;-65
2021/07/26 01:11:54;;;;;;;1999.90;999.90;;;;;;;20.17;65.53;95909.06;5039918;28;20205;-65
2021/07/26 01:14:22;;;;;;;1999.90;999.90;;;;;;;20.12;65.27;95901.41;5047855;28;20202;-65
2021/07/26 01:16:50;;;;;;;1999.90;999.90;;;;;;;20.12;65.72;95906.69;5056308;28;20249;-66
2021/07/26 01:19:17;;;;;;;1999.90;999.90;;;;;;;20.05;65.82;95911.06;5067617;28;20196;-65
2021/07/26 01:21:46;;;;;;;1999.90;999.90;;;;;;;20.06;65.45;95912.59;5053515;28;20325;-65
2021/07/26 01:24:13;;;;;;;1999.90;999.90;;;;;;;20.06;65.53;95912.59;5047928;28;20201;-66
2021/07/26 01:26:40;;;;;;;1999.90;999.90;;;;;;;20.02;66.14;95914.38;5047258;28;20200;-65
2021/07/26 01:29:11;;;;;;;1999.90;999.90;;;;;;;19.98;66.16;95919.56;5047435;28;20225;-65
2021/07/26 01:31:38;;;;;;;1999.90;999.90;;;;;;;19.98;66.05;95927.47;5047821;28;20288;-66
2021/07/26 01:34:05;;;;;;;1999.90;999.90;;;;;;;19.95;66.42;95928.19;5047449;28;20344;-65
2021/07/26 01:36:33;;;;;;;1999.90;999.90;;;;;;;20.06;65.85;95931.06;5047699;28;20247;-65
2021/07/26 01:39:01;;;;;;;1999.90;999.90;;;;;;;19.94;66.49;95939.84;5047276;28;20273;-66
2021/07/26 01:41:35;;;;;;;1999.90;999.90;;;;;;;19.72;68.82;95938.59;5042769;28;20266;-65
2021/07/26 01:44:06;;;;;;;1999.90;999.90;;;;;;;19.59;69.69;95939.75;5047607;28;20269;-65
2021/07/26 01:46:56;;;;;;;1999.90;999.90;;;;;;;19.46;70.84;95946.22;5047228;28;20193;-65
2021/07/26 01:49:36;;;;;;;1999.90;999.90;;;;;;;19.44;71.64;95951.03;5046857;28;20208;-65
2021/07/26 01:52:05;;;;;;;1999.90;999.90;;;;;;;19.38;72.27;95944.44;5047539;28;20641;-65
2021/07/26 01:54:34;;;;;;;1999.90;999.90;;;;;;;19.36;72.54;95944.03;5047102;28;20297;-66
2021/07/26 01:57:02;;;;;;;1999.90;999.90;;;;;;;19.36;72.11;95944.03;5047007;28;20197;-65
2021/07/26 01:59:30;;;;;;;1999.90;999.90;;;;;;;19.33;72.73;95934.16;5047444;28;20658;-66
2021/07/26 02:01:58;;;;;;;1999.90;999.90;;;;;;;19.28;73.88;95937.03;5047928;27;20715;-66
2021/07/26 02:04:25;;;;;;;1999.90;999.90;;;;;;;19.10;74.90;95941.84;5044446;27;20340;-65
2021/07/26 02:06:52;;;;;;;1999.90;999.90;;;;;;;18.90;75.92;95938.31;5045300;28;20233;-66
2021/07/26 02:09:19;;;;;;;1999.90;999.90;;;;;;;18.92;77.06;95941.38;5045701;28;20240;-64
2021/07/26 02:11:47;;;;;;;1999.90;999.90;;;;;;;18.86;77.85;95950.63;5046716;28;20201;-66
2021/07/26 02:14:14;;;;;;;1999.90;999.90;;;;;;;18.90;77.12;95951.47;5046592;28;20628;-66
2021/07/26 02:16:42;;;;;;;1999.90;999.90;;;;;;;18.98;75.46;95952.44;5046660;28;20253;-65
2021/07/26 02:19:09;;;;;;;1999.90;999.90;;;;;;;18.94;74.20;95954.22;5046963;28;20198;-64
2021/07/26 02:21:36;;;;;;;1999.90;999.90;;;;;;;18.91;75.49;95949.63;5046334;28;20732;-64
2021/07/26 02:24:07;;;;;;;1999.90;999.90;;;;;;;18.93;75.34;95956.06;5041654;28;20205;-65
2021/07/26 02:26:34;;;;;;;1999.90;999.90;;;;;;;18.85;74.69;95962.25;5044003;28;20605;-65
2021/07/26 02:29:05;;;;;;;1999.90;999.90;;;;;;;18.85;74.40;95959.63;5046823;28;20222;-66
2021/07/26 02:31:32;;;;;;;1999.90;999.90;;;;;;;18.89;74.55;95957.84;5033584;28;20241;-65
2021/07/26 02:33:59;;;;;;;1999.90;999.90;;;;;;;18.83;75.64;95955.78;5026477;28;20202;-65
2021/07/26 02:36:26;;;;;;;1999.90;999.90;;;;;;;18.75;76.41;95962.72;5026085;28;20817;-65
2021/07/26 02:38:53;;;;;;;1999.90;999.90;;;;;;;18.71;76.17;95971.63;5027267;28;20278;-65
2021/07/26 02:41:20;;;;;;;1999.90;999.90;;;;;;;18.66;76.46;95966.59;5046469;28;20236;-65
2021/07/26 02:43:47;;;;;;;1999.90;999.90;;;;;;;18.63;76.96;95965.38;5046189;28;20201;-65
2021/07/26 02:46:16;;;;;;;1999.90;999.90;;;;;;;18.60;78.24;95976.56;5046045;28;20757;-65
2021/07/26 02:48:43;;;;;;;1999.90;999.90;;;;;;;18.57;79.22;95977.25;5045910;28;20221;-64
2021/07/26 02:51:10;;;;;;;1999.90;999.90;;;;;;;18.49;79.82;95970.19;5043793;28;20205;-65
2021/07/26 02:53:38;;;;;;;1999.90;999.90;;;;;;;18.41;79.91;95966.59;5046774;27;20630;-65
2021/07/26 02:56:09;;;;;;;1999.90;999.90;;;;;;;18.44;80.09;95963.28;5054985;28;20684;-65
2021/07/26 02:58:36;;;;;;;1999.90;999.90;;;;;;;18.38;80.18;95961.25;5046518;28;20185;-65
2021/07/26 03:01:04;;;;;;;1999.90;999.90;;;;;;;18.31;81.00;95958.38;5027073;28;20285;-64
2021/07/26 03:03:32;;;;;;;1999.90;999.90;;;;;;;18.16;81.12;95969.56;5043103;28;20679;-64
2021/07/26 03:05:59;;;;;;;1999.90;999.90;;;;;;;18.08;81.47;95975.72;5056737;28;20242;-64
2021/07/26 03:08:29;;;;;;;1999.90;999.90;;;;;;;18.13;81.41;95978.91;5041070;28;20209;-65
2021/07/26 03:11:00;;;;;;;1999.90;999.90;;;;;;;18.14;81.56;95975.16;5039025;27;20296;-65
2021/07/26 03:13:28;;;;;;;1999.90;999.90;;;;;;;18.19;81.16;95974.94;5044965;27;20204;-65
2021/07/26 03:15:55;;;;;;;1999.90;999.90;;;;;;;18.23;80.13;95977.69;5043477;27;20953;-70
2021/07/26 03:18:22;;;;;;;1999.90;999.90;;;;;;;18.27;79.01;95976.72;5045519;27;20232;-70
2021/07/26 03:20:50;;;;;;;1999.90;999.90;;;;;;;18.28;78.88;95980.84;5045329;27;20233;-70
2021/07/26 03:23:17;;;;;;;1999.90;999.90;;;;;;;18.38;79.42;95979.66;5045354;27;20676;-64
2021/07/26 03:25:45;;;;;;;1999.90;999.90;;;;;;;18.36;79.36;95987.13;5045537;27;20628;-64
2021/07/26 03:28:12;;;;;;;1999.90;999.90;;;;;;;18.39;78.46;95986.44;5045264;27;20201;-64
2021/07/26 03:30:39;;;;;;;1999.90;999.90;;;;;;;18.37;78.09;95989.41;5042971;27;20293;-68
2021/07/26 03:33:07;;;;;;;1999.90;999.90;;;;;;;18.33;78.21;95987.78;5041914;27;20210;-64
2021/07/26 03:35:34;;;;;;;1999.90;999.90;;;;;;;18.38;77.62;95990.19;5045623;27;20628;-66
2021/07/26 03:38:05;;;;;;;1999.90;999.90;;;;;;;18.40;77.59;95998.50;5045155;27;20205;-66
2021/07/26 03:40:32;;;;;;;1999.90;999.90;;;;;;;18.36;77.29;95998.41;5046781;27;20857;-65
2021/07/26 03:42:59;;;;;;;1999.90;999.90;;;;;;;18.39;77.42;95992.47;5045434;27;20687;-66
2021/07/26 03:45:26;;;;;;;1999.90;999.90;;;;;;;18.38;77.13;95992.81;5043665;27;20685;-62
2021/07/26 03:47:56;;;;;;;1999.90;999.90;;;;;;;18.40;77.28;96004.53;5049340;27;20680;-62
2021/07/26 03:50:24;;;;;;;1999.90;999.90;;;;;;;18.47;76.75;96009.25;5048607;27;20221;-61
2021/07/26 03:52:54;;;;;;;1999.90;999.90;;;;;;;18.47;76.73;96017.16;5049002;27;20205;-61
2021/07/26 03:55:24;;;;;;;1999.90;999.90;;;;;;;18.48;76.78;96016.81;5047039;27;20193;-60
2021/07/26 03:57:53;;;;;;;1999.90;999.90;;;;;;;18.56;77.11;96012.56;5062301;27;20196;-58
2021/07/26 04:00:21;;;;;;;1999.90;999.90;;;;;;;18.60;77.50;96010.81;5038117;28;20197;-59
2021/07/26 04:02:53;;;;;;;1999.90;999.90;;;;;;;18.67;77.57;96008.38;5047478;28;20712;-61
2021/07/26 04:05:25;;;;;;;1999.90;999.90;;;;;;;18.74;76.79;96002.53;5046012;28;20209;-59
2021/07/26 04:07:52;;;;;;;1999.90;999.90;;;;;;;18.79;77.73;96012.84;5045887;28;21050;-59
2021/07/26 04:10:19;;;;;;;1999.90;999.90;;;;;;;18.75;80.00;96015.38;5045873;28;20218;-58
2021/07/26 04:12:50;;;;;;;1999.90;999.90;;;;;;;18.72;80.96;96010.03;5045599;27;20201;-59
2021/07/26 04:15:18;;;;;;;1999.90;999.90;;;;;;;18.63;82.34;96012.03;5045889;28;20185;-59
2021/07/26 04:17:45;;;;;;;1999.90;999.90;;;;;;;18.66;83.01;96011.34;5046022;28;21004;-59
2021/07/26 04:20:13;;;;;;;1999.90;999.90;;;;;;;18.69;84.16;96013.31;5048447;28;20238;-59
2021/07/26 04:22:40;;;;;;;1999.90;999.90;;;;;;;18.64;85.62;96013.53;5048483;28;20260;-59
2021/07/26 04:25:08;;;;;;;1999.90;999.90;;;;;;;18.66;84.95;96017.38;5048821;28;20200;-59
2021/07/26 04:27:36;;;;;;;1999.90;999.90;;;;;;;18.92;81.74;96020.41;5048702;28;20197;-59
2021/07/26 04:30:07;;;;;;;1999.90;999.90;;;;;;;19.07;80.21;96020.81;5048335;28;20315;-59
2021/07/26 04:32:42;;;;;;;1999.90;999.90;;;;;;;19.35;77.83;96027.63;5048411;28;20197;-59
2021/07/26 04:35:10;;;;;;;1999.90;999.90;;;;;;;19.55;76.71;96031.19;5048379;28;20200;-59
2021/07/26 04:37:38;;;;;;;1999.90;999.90;;;;;;;19.83;74.76;96036.41;5048388;28;20198;-59
2021/07/26 04:40:08;;;;;;;1999.90;999.90;;;;;;;20.21;72.55;96030.56;5048556;28;20205;-59
2021/07/26 04:42:35;;;;;;;1999.90;999.90;;;;;;;20.53;71.23;96026.03;5048223;28;20201;-59
2021/07/26 04:45:02;;;;;;;1999.90;999.90;;;;;;;20.85;69.61;96027.50;5048231;28;20197;-59
2021/07/26 04:47:31;;;;;;;1999.90;999.90;;;;;;;21.21;67.97;96023.75;5048090;28;20696;-60
2021/07/26 04:49:58;;;;;;;1999.90;999.90;;;;;;;21.47;66.33;96038.97;5048315;28;20307;-60
2021/07/26 04:52:26;;;;;;;1999.90;999.90;;;;;;;21.53;64.40;96045.50;5048094;28;20205;-60
2021/07/26 04:54:53;;;;;;;1999.90;999.90;;;;;;;21.70;63.75;96050.38;5048368;28;20258;-60
2021/07/26 04:57:20;;;;;;;1999.90;999.90;;;;;;;21.82;61.81;96046.78;5048057;28;20695;-60
2021/07/26 04:59:47;;;;;;;1999.90;999.90;;;;;;;22.00;62.61;96050.53;5047460;28;20194;-58
2021/07/26 05:02:14;;;;;;;1999.90;999.90;;;;;;;22.01;63.82;96049.44;5047998;28;20209;-59
2021/07/26 05:04:43;;;;;;;1999.90;999.90;;;;;;;21.83;64.42;96046.44;5048070;28;20269;-59
2021/07/26 05:07:10;;;;;;;1999.90;999.90;;;;;;;21.84;64.99;96047.19;5047856;28;20197;-58
2021/07/26 05:09:40;;;;;;;1999.90;999.90;;;;;;;22.08;64.98;96046.88;5047822;28;20320;-58
2021/07/26 05:12:12;;;;;;;1999.90;999.90;;;;;;;22.08;68.23;96049.53;5047780;28;20199;-59
2021/07/26 05:14:40;;;;;;;1999.90;999.90;;;;;;;21.71;67.12;96051.91;5047778;28;20189;-59
2021/07/26 05:17:07;;;;;;;1999.90;999.90;;;;;;;21.60;66.47;96044.88;5047936;28;20580;-59
2021/07/26 05:19:34;;;;;;;1999.90;999.90;;;;;;;21.89;67.95;96041.63;5047726;28;20204;-58
2021/07/26 05:22:03;;;;;;;1999.90;999.90;;;;;;;22.00;66.19;96047.91;5050018;27;20260;-59
2021/07/26 05:24:30;;;;;;;1999.90;999.90;;;;;;;21.77;65.07;96042.53;5047836;28;20201;-59
2021/07/26 05:26:59;;;;;;;1999.90;999.90;;;;;;;21.81;65.78;96047.91;5047936;28;20604;-59
2021/07/26 05:29:26;;;;;;;1999.90;999.90;;;;;;;21.99;66.48;96054.31;5047389;28;20225;-59
2021/07/26 05:31:53;;;;;;;1999.90;999.90;;;;;;;22.14;66.00;96050.00;5047568;28;20212;-59
2021/07/26 05:34:21;;;;;;;1999.90;999.90;;;;;;;22.13;65.23;96057.19;5047879;28;20201;-59
2021/07/26 05:36:48;;;;;;;1999.90;999.90;;;;;;;22.29;67.15;96059.72;5047676;28;20304;-59
2021/07/26 05:39:16;;;;;;;1999.90;999.90;;;;;;;22.32;67.49;96065.06;5047725;28;20205;-59
2021/07/26 05:41:44;;;;;;;1999.90;999.90;;;;;;;22.55;67.65;96061.63;5047574;28;20730;-59
2021/07/26 05:44:11;;;;;;;1999.90;999.90;;;;;;;22.71;67.25;96051.69;5047462;28;20229;-59
2021/07/26 05:46:38;;;;;;;1999.90;999.90;;;;;;;22.74;65.34;96050.97;5047313;28;20201;-59
2021/07/26 05:49:06;;;;;;;1999.90;999.90;;;;;;;23.15;60.64;96052.66;5047471;28;20205;-59
2021/07/26 05:51:33;;;;;;;1999.90;999.90;;;;;;;23.54;60.12;96058.47;5047202;28;20235;-59
2021/07/26 05:54:00;;;;;;;1999.90;999.90;;;;;;;23.66;59.84;96062.72;5047359;28;20233;-59
2021/07/26 05:56:30;;;;;;;1999.90;999.90;;;;;;;23.61;62.66;96057.78;5047080;28;20204;-59
2021/07/26 05:59:01;;;;;;;1999.90;999.90;;;;;;;23.72;61.09;96060.53;5047345;28;20254;-59
2021/07/26 06:01:46;;;;;;;1999.90;999.90;;;;;;;23.49;59.82;96050.81;5047265;28;20221;-60
2021/07/26 06:04:15;;;;;;;1999.90;999.90;;;;;;;23.65;61.00;96053.25;5046981;28;20197;-60
2021/07/26 06:06:43;;;;;;;1999.90;999.90;;;;;;;23.85;60.87;96059.16;5047200;28;20225;-60
2021/07/26 06:09:10;;;;;;;1999.90;999.90;;;;;;;24.10;61.38;96062.81;5046609;28;20201;-60
2021/07/26 06:11:39;;;;;;;1999.90;999.90;;;;;;;24.16;58.57;96066.63;5046003;28;20236;-60
2021/07/26 06:14:06;;;;;;;1999.90;999.90;;;;;;;24.45;58.25;96059.72;5046859;28;20201;-60
2021/07/26 06:16:34;;;;;;;1999.90;999.90;;;;;;;24.36;58.52;96059.25;5046728;28;20665;-61
2021/07/26 06:19:08;;;;;;;1999.90;999.90;;;;;;;24.49;56.60;96055.19;5047151;28;20693;-60
2021/07/26 06:21:39;;;;;;;1999.90;999.90;;;;;;;24.83;56.50;96056.53;5046574;28;20304;-60
2021/07/26 06:24:07;;;;;;;1999.90;999.90;;;;;;;25.21;51.74;96049.16;5047073;28;20201;-60
2021/07/26 06:26:34;;;;;;;1999.90;999.90;;;;;;;25.32;53.84;96055.28;5046962;28;20194;-60
2021/07/26 06:29:02;;;;;;;1999.90;999.90;;;;;;;25.07;53.65;96059.72;5046659;28;20201;-60
2021/07/26 06:31:30;;;;;;;1999.90;999.90;;;;;;;25.23;52.23;96054.88;5046626;28;20727;-60
2021/07/26 06:33:57;;;;;;;1999.90;999.90;;;;;;;25.35;50.04;96051.13;5046634;28;20892;-60
2021/07/26 06:36:24;;;;;;;1999.90;999.90;;;;;;;25.44;52.62;96057.63;5046488;28;20201;-59
2021/07/26 06:38:51;;;;;;;1999.90;999.90;;;;;;;25.51;52.50;96054.97;5046442;28;20208;-60
2021/07/26 06:41:18;;;;;;;1999.90;999.90;;;;;;;25.84;50.00;96055.88;5046743;28;20193;-60
2021/07/26 06:43:45;;;;;;;1999.90;999.90;;;;;;;25.79;50.08;96050.91;5046567;28;20206;-61
2021/07/26 06:46:14;;;;;;;1999.90;999.90;;;;;;;26.00;47.45;96057.00;5046455;28;20197;-60
2021/07/26 06:48:41;;;;;;;1999.90;999.90;;;;;;;26.25;46.36;96049.06;5046464;28;20292;-60
2021/07/26 06:51:08;;;;;;;1999.90;999.90;;;;;;;26.34;48.97;96054.81;5046168;28;20236;-60
2021/07/26 06:53:35;;;;;;;1999.90;999.90;;;;;;;26.35;49.67;96048.31;5046450;28;20292;-60
2021/07/26 06:56:04;;;;;;;1999.90;999.90;;;;;;;26.38;46.76;96041.47;5046229;28;20262;-61
2021/07/26 06:58:32;;;;;;;1999.90;999.90;;;;;;;26.31;46.13;96044.88;5046274;28;20197;-60
2021/07/26 07:01:04;;;;;;;1999.90;999.90;;;;;;;26.46;47.02;96042.97;5046437;28;20197;-60
2021/07/26 07:03:32;;;;;;;1999.90;999.90;;;;;;;26.52;46.07;96038.78;5046196;28;20234;-59
2021/07/26 07:06:03;;;;;;;1999.90;999.90;;;;;;;26.68;44.89;96043.72;5045922;28;20208;-60
2021/07/26 07:08:30;;;;;;;1999.90;999.90;;;;;;;26.59;45.30;96033.47;5046108;28;20202;-59
2021/07/26 07:11:06;;;;;;;1999.90;999.90;;;;;;;26.69;45.01;96037.25;5046186;28;20220;-60
2021/07/26 07:13:33;;;;;;;1999.90;999.90;;;;;;;26.83;44.42;96032.66;5045891;28;20287;-59
2021/07/26 07:16:00;;;;;;;1999.90;999.90;;;;;;;26.67;47.45;96031.53;5045964;28;20212;-60
2021/07/26 07:18:28;;;;;;;1999.90;999.90;;;;;;;26.87;48.60;96027.31;5046018;28;20201;-59
2021/07/26 07:20:57;;;;;;;1999.90;999.90;;;;;;;26.87;45.95;96030.00;5045956;27;20240;-60
2021/07/26 07:23:24;;;;;;;1999.90;999.90;;;;;;;26.63;45.22;96033.44;5045643;27;20204;-59
2021/07/26 07:25:51;;;;;;;1999.90;999.90;;;;;;;26.68;43.64;96030.38;5045782;28;20226;-59
2021/07/26 07:28:19;;;;;;;1999.90;999.90;;;;;;;26.64;46.66;96033.06;5045904;28;20237;-59
2021/07/26 07:30:46;;;;;;;1999.90;999.90;;;;;;;26.86;46.73;96036.44;5048299;27;20217;-59
2021/07/26 07:33:13;;;;;;;1999.90;999.90;;;;;;;26.98;45.99;96025.41;5045668;28;20253;-60
2021/07/26 07:35:40;;;;;;;1999.90;999.90;;;;;;;27.31;44.47;96027.56;5045660;28;20209;-60
2021/07/26 07:38:09;;;;;;;1999.90;999.90;;;;;;;27.49;43.42;96034.72;5045642;28;20205;-60
2021/07/26 07:40:38;;;;;;;1999.90;999.90;;;;;;;27.48;42.85;96033.22;5045800;28;20225;-60
2021/07/26 07:43:06;;;;;;;1999.90;999.90;;;;;;;27.59;43.71;96033.94;5045831;28;20259;-60
2021/07/26 07:45:34;;;;;;;1999.90;999.90;;;;;;;27.59;41.64;96029.38;5045933;28;20673;-60
2021/07/26 07:48:01;;;;;;;1999.90;999.90;;;;;;;27.57;45.96;96034.31;5045859;28;20211;-59
2021/07/26 07:50:29;;;;;;;1999.90;999.90;;;;;;;27.83;42.20;96036.47;5045351;28;20312;-60
2021/07/26 07:52:58;;;;;;;1999.90;999.90;;;;;;;27.73;42.18;96031.19;5045752;28;20288;-60
2021/07/26 07:55:26;;;;;;;1999.90;999.90;;;;;;;27.78;42.29;96036.13;5045793;28;20232;-60
2021/07/26 07:57:54;;;;;;;1999.90;999.90;;;;;;;27.92;42.50;96040.59;5045367;28;20677;-60
2021/07/26 08:00:22;;;;;;;1999.90;999.90;;;;;;;28.05;41.10;96031.72;5045878;28;20238;-59
2021/07/26 08:02:50;;;;;;;1999.90;999.90;;;;;;;28.08;43.30;96030.97;5045073;28;20284;-60
2021/07/26 08:05:18;;;;;;;1999.90;999.90;;;;;;;28.18;39.94;96026.72;5045318;28;20201;-60
2021/07/26 08:07:46;;;;;;;1999.90;999.90;;;;;;;27.96;41.69;96026.06;5045285;28;20677;-60
2021/07/26 08:10:13;;;;;;;1999.90;999.90;;;;;;;28.21;42.49;96031.25;5045291;28;20207;-60
2021/07/26 08:12:43;;;;;;;1999.90;999.90;;;;;;;27.87;41.11;96028.44;5045264;28;20599;-59
2021/07/26 08:15:11;;;;;;;1999.90;999.90;;;;;;;27.98;42.30;96015.75;5045437;28;20993;-61
2021/07/26 08:17:42;;;;;;;1999.90;999.90;;;;;;;28.08;43.60;96022.94;5045584;28;20198;-60
2021/07/26 08:20:11;;;;;;;1999.90;999.90;;;;;;;28.30;39.38;96020.09;5045171;28;20257;-60
2021/07/26 08:22:38;;;;;;;1999.90;999.90;;;;;;;28.57;39.04;96013.00;5045713;28;20196;-60
2021/07/26 08:25:07;;;;;;;1999.90;999.90;;;;;;;28.67;41.10;96009.47;5045297;28;20208;-60
2021/07/26 08:27:49;;;;;;;1999.90;999.90;;;;;;;28.70;41.38;96008.66;5045616;28;20245;-57
2021/07/26 08:30:20;;;;;;;1999.90;999.90;;;;;;;28.63;41.57;96006.06;5045297;28;20185;-60
2021/07/26 08:32:47;;;;;;;1999.90;999.90;;;;;;;28.25;40.83;96008.69;5045006;28;20201;-59
2021/07/26 08:35:14;;;;;;;1999.90;999.90;;;;;;;28.67;38.49;96004.09;5046359;28;20201;-60
2021/07/26 08:37:41;;;;;;;1999.90;999.90;;;;;;;28.61;42.14;96003.78;5048617;28;20212;-59
2021/07/26 08:40:10;;;;;;;1999.90;999.90;;;;;;;28.33;40.96;96004.06;5048321;28;20204;-60
2021/07/26 08:42:37;;;;;;;1999.90;999.90;;;;;;;28.68;39.91;95994.94;5048099;28;20681;-59
2021/07/26 08:45:10;;;;;;;1999.90;999.90;;;;;;;29.02;39.90;96003.75;5048351;28;20197;-60
2021/07/26 08:47:40;;;;;;;1999.90;999.90;;;;;;;28.68;41.97;96000.28;5048549;28;20305;-59
2021/07/26 08:50:09;;;;;;;1999.90;999.90;;;;;;;28.76;42.16;96001.75;5048182;28;20197;-60
2021/07/26 08:52:40;;;;;;;1999.90;999.90;;;;;;;29.15;40.38;95997.84;5048315;28;20194;-60
2021/07/26 08:55:12;;;;;;;1999.90;999.90;;;;;;;29.35;40.06;95994.19;5048624;28;20533;-60
2021/07/26 08:57:42;;;;;;;1999.90;999.90;;;;;;;29.39;38.77;96008.28;5048077;28;20281;-60
2021/07/26 09:00:13;;;;;;;1999.90;999.90;;;;;;;29.60;39.30;95996.53;5048140;28;20190;-60
2021/07/26 09:02:40;;;;;;;1999.90;999.90;;;;;;;29.30;39.33;95985.81;5047979;28;20194;-60
2021/07/26 09:05:09;;;;;;;1999.90;999.90;;;;;;;29.01;39.17;95991.53;5048014;28;20656;-60
2021/07/26 09:07:41;;;;;;;1999.90;999.90;;;;;;;28.83;40.26;95990.22;5047766;28;20676;-59
2021/07/26 09:10:18;;;;;;;1999.90;999.90;;;;;;;28.85;39.62;95995.91;5048327;28;20186;-59
2021/07/26 09:12:48;;;;;;;1999.90;999.90;;;;;;;28.86;40.46;95995.53;5047964;28;20554;-60
2021/07/26 09:15:28;;;;;;;1999.90;999.90;;;;;;;29.13;40.39;95998.28;5047839;28;20204;-60
2021/07/26 09:17:57;;;;;;;1999.90;999.90;;;;;;;29.34;39.86;95990.00;5048125;28;20258;-60
2021/07/26 09:20:28;;;;;;;1999.90;999.90;;;;;;;29.49;40.13;95990.56;5047475;28;20318;-60
2021/07/26 09:22:57;;;;;;;1999.90;999.90;;;;;;;29.60;39.92;95991.19;5047762;28;20743;-59
2021/07/26 09:25:26;;;;;;;1999.90;999.90;;;;;;;29.51;37.94;95993.59;5047952;28;20295;-60
2021/07/26 09:28:15;;;;;;;1999.90;999.90;;;;;;;29.57;38.69;95993.91;5047596;28;20618;-60
2021/07/26 09:30:46;;;;;;;1999.90;999.90;;;;;;;29.34;39.52;95986.56;5064505;28;20213;-60
2021/07/26 09:33:22;;;;;;;1999.90;999.90;;;;;;;29.75;41.39;95992.50;5067489;28;20231;-60
2021/07/26 09:36:12;;;;;;;1999.90;999.90;;;;;;;29.74;38.84;95985.59;5067837;27;20200;-60
2021/07/26 09:38:40;;;;;;;1999.90;999.90;;;;;;;29.93;38.93;95985.00;5067575;28;20218;-60
2021/07/26 09:41:08;;;;;;;1999.90;999.90;;;;;;;29.74;40.15;95988.28;5067353;28;20668;-60
2021/07/26 09:43:36;;;;;;;1999.90;999.90;;;;;;;29.97;39.54;95978.81;5067586;28;20203;-60
2021/07/26 09:46:04;;;;;;;1999.90;999.90;;;;;;;30.29;39.46;95984.38;5037136;28;20332;-60
2021/07/26 09:48:32;;;;;;;1999.90;999.90;;;;;;;30.14;37.61;95983.88;5047193;28;20254;-60
2021/07/26 09:51:01;;;;;;;1999.90;999.90;;;;;;;30.39;37.79;95977.34;5047113;28;20703;-60
2021/07/26 09:53:29;;;;;;;1999.90;999.90;;;;;;;30.07;39.12;95983.25;5047487;28;20209;-60
2021/07/26 09:55:58;;;;;;;1999.90;999.90;;;;;;;29.93;40.28;95978.88;5047039;28;20681;-60
2021/07/26 09:58:39;;;;;;;1999.90;999.90;;;;;;;30.38;39.05;95986.56;5047136;28;20201;-60
2021/07/26 10:01:09;;;;;;;1999.90;999.90;;;;;;;30.38;36.59;95986.56;5047392;28;20201;-61
2021/07/26 10:03:38;;;;;;;1999.90;999.90;;;;;;;30.19;37.77;95986.09;5046983;28;20189;-60
2021/07/26 10:06:06;;;;;;;1999.90;999.90;;;;;;;30.21;38.28;95986.44;5046984;28;20212;-60
2021/07/26 10:08:33;;;;;;;1999.90;999.90;;;;;;;30.50;38.60;95991.34;5047125;28;20201;-60
2021/07/26 10:11:01;;;;;;;1999.90;999.90;;;;;;;30.58;38.24;95985.47;5046645;28;20221;-61
2021/07/26 10:13:29;;;;;;;1999.90;999.90;;;;;;;30.74;39.06;95988.22;5047169;28;20618;-61
2021/07/26 10:15:57;;;;;;;1999.90;999.90;;;;;;;30.78;38.00;95988.16;5046904;28;20205;-61
2021/07/26 10:18:26;;;;;;;1999.90;999.90;;;;;;;30.81;37.13;95986.56;5046749;28;20211;-60
2021/07/26 10:21:01;;;;;;;1999.90;999.90;;;;;;;30.81;37.86;95990.00;5046503;28;20319;-60
2021/07/26 10:23:35;;;;;;;1999.90;999.90;;;;;;;30.86;38.94;95988.78;5046993;28;20197;-60
2021/07/26 10:26:05;;;;;;;1999.90;999.90;;;;;;;30.95;36.49;95980.91;5047038;28;20192;-60
2021/07/26 10:28:34;;;;;;;1999.90;999.90;;;;;;;30.91;36.97;95975.63;5046922;28;20234;-60
2021/07/26 10:31:01;;;;;;;1999.90;999.90;;;;;;;30.79;36.09;95977.00;5046494;28;20221;-60
2021/07/26 10:33:30;;;;;;;1999.90;999.90;;;;;;;30.89;36.25;95979.88;5046440;28;20198;-61
2021/07/26 10:35:57;;;;;;;1999.90;999.90;;;;;;;31.05;36.41;95974.59;5046582;28;20198;-60
2021/07/26 10:38:57;;;;;;;1999.90;999.90;;;;;;;31.22;34.57;95968.13;5046472;28;20258;-61
2021/07/26 10:42:04;;;;;;;1999.90;999.90;;;;;;;31.07;38.04;95956.94;5046511;28;20225;-60
2021/07/26 10:44:47;;;;;;;1999.90;999.90;;;;;;;31.27;34.30;95954.22;5006858;28;20672;-61
2021/07/26 10:47:18;;;;;;;1999.90;999.90;;;;;;;31.31;37.53;95954.88;5046539;28;20186;-61
2021/07/26 10:50:12;;;;;;;1999.90;999.90;;;;;;;31.47;34.08;95946.84;5046329;28;20288;-61
2021/07/26 10:52:50;;;;;;;1999.90;999.90;;;;;;;31.30;32.48;95942.63;5046542;28;20221;-61
2021/07/26 10:55:59;;;;;;;1999.90;999.90;;;;;;;31.49;32.18;95947.19;5046312;28;20691;-60
2021/07/26 10:59:00;;;;;;;1999.90;999.90;;;;;;;31.56;34.24;95948.97;5044203;28;20284;-60
2021/07/26 11:01:42;;;;;;;1999.90;999.90;;;;;;;31.48;34.00;95948.34;5046329;28;20669;-61
2021/07/26 11:04:32;;;;;;;1999.90;999.90;;;;;;;31.59;35.60;95942.75;5043473;28;20201;-60